createdAt,value
2018-05-12T00:00:43.575Z,15.51
2018-05-12T00:01:43.554Z,15.43
2018-05-12T00:02:43.510Z,15.46
2018-05-12T00:03:43.603Z,15.37
2018-05-12T00:04:43.457Z,15.44
2018-05-12T00:05:45.490Z,15.46
2018-05-12T00:06:43.412Z,15.46
2018-05-12T00:07:43.416Z,15.48
2018-05-12T00:08:43.372Z,15.41
2018-05-12T00:09:50.325Z,15.41
2018-05-12T00:10:43.328Z,15.41
2018-05-12T00:11:43.680Z,15.43
2018-05-12T00:12:43.277Z,15.48
2018-05-12T00:13:43.377Z,15.43
2018-05-12T00:14:43.239Z,15.33
2018-05-12T00:15:43.277Z,15.44
2018-05-12T00:16:43.179Z,15.46
2018-05-12T00:17:43.176Z,15.38
2018-05-12T00:18:43.155Z,15.44
2018-05-12T00:19:43.197Z,15.44
2018-05-12T00:20:43.093Z,15.46
2018-05-12T00:21:43.110Z,15.30
2018-05-12T00:22:43.056Z,15.35
2018-05-12T00:23:44.070Z,15.40
2018-05-12T00:24:43.023Z,15.38
2018-05-12T00:25:43.041Z,15.37
2018-05-12T00:26:42.951Z,15.37
2018-05-12T00:27:42.970Z,15.35
2018-05-12T00:28:42.921Z,15.34
2018-05-12T00:29:42.949Z,15.35
2018-05-12T00:30:42.871Z,15.35
2018-05-12T00:31:42.852Z,15.35
2018-05-12T00:32:42.827Z,15.33
2018-05-12T00:33:42.871Z,15.40
2018-05-12T00:34:42.758Z,15.37
2018-05-12T00:35:42.788Z,15.33
2018-05-12T00:36:42.711Z,15.30
2018-05-12T00:37:42.810Z,15.31
2018-05-12T00:38:42.672Z,15.25
2018-05-12T00:39:42.707Z,15.25
2018-05-12T00:40:42.622Z,15.28
2018-05-12T00:41:42.619Z,15.33
2018-05-12T00:42:42.569Z,15.30
2018-05-12T00:43:42.645Z,15.27
2018-05-12T00:44:42.520Z,15.22
2018-05-12T00:45:42.583Z,15.25
2018-05-12T00:46:42.473Z,15.13
2018-05-12T00:47:42.560Z,15.22
2018-05-12T00:48:42.445Z,15.28
2018-05-12T00:49:42.466Z,15.27
2018-05-12T00:50:42.383Z,15.19
2018-05-12T00:51:42.379Z,15.28
2018-05-12T00:52:42.337Z,15.16
2018-05-12T00:53:42.418Z,15.16
2018-05-12T00:54:42.301Z,15.16
2018-05-12T00:55:42.317Z,15.13
2018-05-12T00:56:42.240Z,15.19
2018-05-12T00:57:42.313Z,15.22
2018-05-12T00:58:42.190Z,15.22
2018-05-12T00:59:42.238Z,15.20
2018-05-12T01:00:42.160Z,15.27
2018-05-12T01:01:42.237Z,15.20
2018-05-12T01:02:42.102Z,15.18
2018-05-12T01:03:42.156Z,15.18
2018-05-12T01:04:42.054Z,15.22
2018-05-12T01:05:42.065Z,15.13
2018-05-12T01:06:42.033Z,15.12
2018-05-12T01:07:42.064Z,15.20
2018-05-12T01:08:41.957Z,15.18
2018-05-12T01:09:41.980Z,15.19
2018-05-12T01:10:41.917Z,15.18
2018-05-12T01:11:41.980Z,15.19
2018-05-12T01:12:41.861Z,15.16
2018-05-12T01:13:41.980Z,15.16
2018-05-12T01:14:41.830Z,15.18
2018-05-12T01:15:41.842Z,15.03
2018-05-12T01:16:41.757Z,15.04
2018-05-12T01:17:41.822Z,15.18
2018-05-12T01:18:41.736Z,15.07
2018-05-12T01:19:41.733Z,15.07
2018-05-12T01:20:41.674Z,15.13
2018-05-12T01:21:41.757Z,15.05
2018-05-12T01:22:41.621Z,15.05
2018-05-12T01:23:41.755Z,15.13
2018-05-12T01:24:41.591Z,15.11
2018-05-12T01:25:41.590Z,15.13
2018-05-12T01:26:41.522Z,15.07
2018-05-12T01:27:41.585Z,15.11
2018-05-12T01:28:41.496Z,15.05
2018-05-12T01:29:41.521Z,15.05
2018-05-12T01:30:41.441Z,15.05
2018-05-12T01:31:41.517Z,15.01
2018-05-12T01:32:41.392Z,15.05
2018-05-12T01:33:41.416Z,15.03
2018-05-12T01:34:41.357Z,15.05
2018-05-12T01:35:41.433Z,15.00
2018-05-12T01:36:41.322Z,15.03
2018-05-12T01:37:41.344Z,15.01
2018-05-12T01:38:41.244Z,14.95
2018-05-12T01:39:41.260Z,15.01
2018-05-12T01:40:41.198Z,14.98
2018-05-12T01:41:41.274Z,14.97
2018-05-12T01:42:41.178Z,14.94
2018-05-12T01:43:41.204Z,14.94
2018-05-12T01:44:41.119Z,15.03
2018-05-12T01:45:41.197Z,15.00
2018-05-12T01:46:41.077Z,14.97
2018-05-12T01:47:41.108Z,14.95
2018-05-12T01:48:41.041Z,14.97
2018-05-12T01:49:41.012Z,14.87
2018-05-12T01:50:40.959Z,14.98
2018-05-12T01:51:41.028Z,14.87
2018-05-12T01:52:40.930Z,14.87
2018-05-12T01:53:40.927Z,14.95
2018-05-12T01:54:40.862Z,14.87
2018-05-12T01:55:40.943Z,14.97
2018-05-12T01:56:40.830Z,14.87
2018-05-12T01:57:40.860Z,14.93
2018-05-12T01:58:40.770Z,14.91
2018-05-12T01:59:40.786Z,14.85
2018-05-12T02:00:40.723Z,14.87
2018-05-12T02:01:40.780Z,14.85
2018-05-12T02:02:40.676Z,14.87
2018-05-12T02:03:40.692Z,14.90
2018-05-12T02:04:40.635Z,14.95
2018-05-12T02:05:42.650Z,14.83
2018-05-12T02:06:40.631Z,14.94
2018-05-12T02:07:40.607Z,14.90
2018-05-12T02:08:40.543Z,14.91
2018-05-12T02:09:40.555Z,14.80
2018-05-12T02:10:40.496Z,14.93
2018-05-12T02:11:40.527Z,14.75
2018-05-12T02:12:40.446Z,14.79
2018-05-12T02:13:40.477Z,14.87
2018-05-12T02:14:40.379Z,14.85
2018-05-12T02:15:40.466Z,14.87
2018-05-12T02:16:40.334Z,14.85
2018-05-12T02:17:40.388Z,14.83
2018-05-12T02:18:40.295Z,14.85
2018-05-12T02:19:40.376Z,14.86
2018-05-12T02:20:40.244Z,14.85
2018-05-12T02:21:40.302Z,14.80
2018-05-12T02:22:40.204Z,14.78
2018-05-12T02:23:40.209Z,14.85
2018-05-12T02:24:40.142Z,14.74
2018-05-12T02:25:40.222Z,14.80
2018-05-12T02:26:40.114Z,14.69
2018-05-12T02:27:40.137Z,14.83
2018-05-12T02:28:40.084Z,14.82
2018-05-12T02:29:40.127Z,14.66
2018-05-12T02:30:40.020Z,14.69
2018-05-12T02:31:40.160Z,14.67
2018-05-12T02:32:39.985Z,14.63
2018-05-12T02:33:39.951Z,14.64
2018-05-12T02:34:39.983Z,14.61
2018-05-12T02:35:39.893Z,14.60
2018-05-12T02:36:39.993Z,14.57
2018-05-12T02:37:39.841Z,14.59
2018-05-12T02:38:39.911Z,14.48
2018-05-12T02:39:39.789Z,14.38
2018-05-12T02:40:39.812Z,14.39
2018-05-12T02:41:39.754Z,14.30
2018-05-12T02:42:39.836Z,14.27
2018-05-12T02:43:39.707Z,14.17
2018-05-12T02:44:39.746Z,14.21
2018-05-12T02:45:39.658Z,14.19
2018-05-12T02:46:39.751Z,14.11
2018-05-12T02:47:39.597Z,13.99
2018-05-12T02:48:39.676Z,13.99
2018-05-12T02:49:39.557Z,13.96
2018-05-12T02:50:39.678Z,13.96
2018-05-12T02:51:39.516Z,13.94
2018-05-12T02:52:39.694Z,13.87
2018-05-12T02:53:39.482Z,13.86
2018-05-12T02:54:39.485Z,13.86
2018-05-12T02:55:39.414Z,13.81
2018-05-12T02:56:39.498Z,13.88
2018-05-12T02:57:39.351Z,13.81
2018-05-12T02:58:39.519Z,13.80
2018-05-12T02:59:39.325Z,13.66
2018-05-12T03:00:39.322Z,13.59
2018-05-12T03:01:39.276Z,13.62
2018-05-12T03:02:39.334Z,13.53
2018-05-12T03:03:39.237Z,13.61
2018-05-12T03:04:39.674Z,13.50
2018-05-12T03:05:39.178Z,13.39
2018-05-12T03:06:39.253Z,13.39
2018-05-12T03:07:39.139Z,13.39
2018-05-12T03:08:39.193Z,13.31
2018-05-12T03:09:39.089Z,13.29
2018-05-12T03:10:39.112Z,13.28
2018-05-12T03:11:39.037Z,13.17
2018-05-12T03:12:39.104Z,13.25
2018-05-12T03:13:38.981Z,13.22
2018-05-12T03:14:39.022Z,13.32
2018-05-12T03:15:38.935Z,13.19
2018-05-12T03:16:39.031Z,13.24
2018-05-12T03:17:38.883Z,13.25
2018-05-12T03:18:38.949Z,13.24
2018-05-12T03:19:38.854Z,13.24
2018-05-12T03:20:38.862Z,13.22
2018-05-12T03:21:38.797Z,13.14
2018-05-12T03:22:38.861Z,13.17
2018-05-12T03:23:38.749Z,13.13
2018-05-12T03:24:38.782Z,13.07
2018-05-12T03:25:38.699Z,13.10
2018-05-12T03:26:38.783Z,13.12
2018-05-12T03:27:38.662Z,13.07
2018-05-12T03:28:38.739Z,13.10
2018-05-12T03:29:38.598Z,13.10
2018-05-12T03:30:38.723Z,13.12
2018-05-12T03:31:38.557Z,13.03
2018-05-12T03:32:38.631Z,13.07
2018-05-12T03:33:38.529Z,13.04
2018-05-12T03:34:38.558Z,13.04
2018-05-12T03:35:38.462Z,13.04
2018-05-12T03:36:38.555Z,13.03
2018-05-12T03:37:38.424Z,13.06
2018-05-12T03:38:38.395Z,13.03
2018-05-12T03:39:38.362Z,13.03
2018-05-12T03:40:38.351Z,12.95
2018-05-12T03:41:38.475Z,13.03
2018-05-12T03:42:38.328Z,13.01
2018-05-12T03:43:38.397Z,13.01
2018-05-12T03:44:38.264Z,12.92
2018-05-12T03:45:38.304Z,12.91
2018-05-12T03:46:38.212Z,12.92
2018-05-12T03:47:38.217Z,12.94
2018-05-12T03:48:38.152Z,12.89
2018-05-12T03:49:38.218Z,12.91
2018-05-12T03:50:38.112Z,12.85
2018-05-12T03:51:38.139Z,12.87
2018-05-12T03:52:38.044Z,12.81
2018-05-12T03:53:38.151Z,12.79
2018-05-12T03:54:37.993Z,12.76
2018-05-12T03:55:38.055Z,12.70
2018-05-12T03:56:37.958Z,12.79
2018-05-12T03:57:38.013Z,12.79
2018-05-12T03:58:37.921Z,12.77
2018-05-12T03:59:37.993Z,12.81
2018-05-12T04:00:37.856Z,12.66
2018-05-12T04:01:37.901Z,12.63
2018-05-12T04:02:37.801Z,12.56
2018-05-12T04:03:37.820Z,12.61
2018-05-12T04:04:37.744Z,12.63
2018-05-12T04:05:37.821Z,12.69
2018-05-12T04:06:37.715Z,12.62
2018-05-12T04:07:37.758Z,12.62
2018-05-12T04:08:37.674Z,12.63
2018-05-12T04:09:37.748Z,12.61
2018-05-12T04:10:37.608Z,12.59
2018-05-12T04:11:37.664Z,12.73
2018-05-12T04:12:37.571Z,12.56
2018-05-12T04:13:37.680Z,12.69
2018-05-12T04:14:37.512Z,12.73
2018-05-12T04:15:37.618Z,12.69
2018-05-12T04:16:37.465Z,12.70
2018-05-12T04:17:37.491Z,12.71
2018-05-12T04:18:37.433Z,12.80
2018-05-12T04:19:37.518Z,12.71
2018-05-12T04:20:37.394Z,12.73
2018-05-12T04:21:37.421Z,12.79
2018-05-12T04:22:37.320Z,12.71
2018-05-12T04:23:37.431Z,12.76
2018-05-12T04:24:37.304Z,12.67
2018-05-12T04:25:37.337Z,12.85
2018-05-12T04:26:37.243Z,12.71
2018-05-12T04:27:37.263Z,12.76
2018-05-12T04:28:37.176Z,12.87
2018-05-12T04:29:37.285Z,12.81
2018-05-12T04:30:37.139Z,12.79
2018-05-12T04:31:37.185Z,12.85
2018-05-12T04:32:37.078Z,12.85
2018-05-12T04:33:37.190Z,12.89
2018-05-12T04:34:37.052Z,12.89
2018-05-12T04:35:37.111Z,12.92
2018-05-12T04:36:36.978Z,12.92
2018-05-12T04:37:37.011Z,13.03
2018-05-12T04:38:36.945Z,12.99
2018-05-12T04:39:37.032Z,13.01
2018-05-12T04:40:36.884Z,13.09
2018-05-12T04:41:36.940Z,13.04
2018-05-12T04:42:36.850Z,13.09
2018-05-12T04:43:36.952Z,13.06
2018-05-12T04:44:36.804Z,13.04
2018-05-12T04:45:36.884Z,13.09
2018-05-12T04:46:36.761Z,13.14
2018-05-12T04:47:36.887Z,13.09
2018-05-12T04:48:36.685Z,13.12
2018-05-12T04:49:36.796Z,13.17
2018-05-12T04:50:36.645Z,13.25
2018-05-12T04:51:36.707Z,13.17
2018-05-12T04:52:36.610Z,13.27
2018-05-12T04:53:36.729Z,13.29
2018-05-12T04:54:36.564Z,13.29
2018-05-12T04:55:36.644Z,13.39
2018-05-12T04:56:36.525Z,13.41
2018-05-12T04:57:36.660Z,13.39
2018-05-12T04:58:36.454Z,13.48
2018-05-12T04:59:36.569Z,13.53
2018-05-12T05:00:36.405Z,13.61
2018-05-12T05:01:36.468Z,13.65
2018-05-12T05:02:36.360Z,13.61
2018-05-12T05:03:36.486Z,13.66
2018-05-12T05:04:36.315Z,13.75
2018-05-12T05:05:36.401Z,13.81
2018-05-12T05:06:36.277Z,13.86
2018-05-12T05:07:37.327Z,13.86
2018-05-12T05:08:36.211Z,13.94
2018-05-12T05:09:36.321Z,13.96
2018-05-12T05:10:36.156Z,14.05
2018-05-12T05:11:36.233Z,13.96
2018-05-12T05:12:36.117Z,14.11
2018-05-12T05:13:36.243Z,14.05
2018-05-12T05:14:36.070Z,14.21
2018-05-12T05:15:36.156Z,14.20
2018-05-12T05:16:36.038Z,14.30
2018-05-12T05:17:36.078Z,14.27
2018-05-12T05:18:36.042Z,14.38
2018-05-12T05:19:37.114Z,14.44
2018-05-12T05:20:35.931Z,14.53
2018-05-12T05:21:36.001Z,14.57
2018-05-12T05:22:35.880Z,14.49
2018-05-12T05:23:36.009Z,14.56
2018-05-12T05:24:35.839Z,14.64
2018-05-12T05:25:35.932Z,14.59
2018-05-12T05:26:35.801Z,14.67
2018-05-12T05:27:35.942Z,14.67
2018-05-12T05:28:35.753Z,14.75
2018-05-12T05:29:35.840Z,14.69
2018-05-12T05:30:35.685Z,14.72
2018-05-12T05:31:35.765Z,14.67
2018-05-12T05:32:35.646Z,14.80
2018-05-12T05:33:35.783Z,14.85
2018-05-12T05:34:35.572Z,14.94
2018-05-12T05:35:35.684Z,14.85
2018-05-12T05:36:35.553Z,14.91
2018-05-12T05:37:35.722Z,14.97
2018-05-12T05:38:35.488Z,15.05
2018-05-12T05:39:35.613Z,15.01
2018-05-12T05:40:35.438Z,14.98
2018-05-12T05:41:35.608Z,14.95
2018-05-12T05:42:35.391Z,15.09
2018-05-12T05:43:35.539Z,15.07
2018-05-12T05:44:35.356Z,15.15
2018-05-12T05:45:35.439Z,15.11
2018-05-12T05:46:35.298Z,15.13
2018-05-12T05:47:35.476Z,15.18
2018-05-12T05:48:35.245Z,15.16
2018-05-12T05:49:35.357Z,15.25
2018-05-12T05:50:35.221Z,15.30
2018-05-12T05:51:35.279Z,15.28
2018-05-12T05:52:35.156Z,15.34
2018-05-12T05:53:35.301Z,15.30
2018-05-12T05:54:35.095Z,15.46
2018-05-12T05:55:35.212Z,15.44
2018-05-12T05:56:35.054Z,15.58
2018-05-12T05:57:35.207Z,15.53
2018-05-12T05:58:35.051Z,15.55
2018-05-12T05:59:35.151Z,15.67
2018-05-12T06:00:34.937Z,15.53
2018-05-12T06:01:35.035Z,15.59
2018-05-12T06:02:34.927Z,15.67
2018-05-12T06:03:35.001Z,15.67
2018-05-12T06:04:34.862Z,15.70
2018-05-12T06:05:34.959Z,15.73
2018-05-12T06:06:34.801Z,15.78
2018-05-12T06:07:34.865Z,15.77
2018-05-12T06:08:34.781Z,15.86
2018-05-12T06:09:34.753Z,15.77
2018-05-12T06:10:34.718Z,15.92
2018-05-12T06:11:34.746Z,15.86
2018-05-12T06:12:34.660Z,15.88
2018-05-12T06:13:34.908Z,15.95
2018-05-12T06:14:34.636Z,15.93
2018-05-12T06:15:34.614Z,15.92
2018-05-12T06:16:34.585Z,15.92
2018-05-12T06:17:34.654Z,15.92
2018-05-12T06:18:34.518Z,15.86
2018-05-12T06:19:34.568Z,15.95
2018-05-12T06:20:34.529Z,16.01
2018-05-12T06:21:34.909Z,16.04
2018-05-12T06:22:34.414Z,16.10
2018-05-12T06:23:34.465Z,16.06
2018-05-12T06:24:34.363Z,16.16
2018-05-12T06:25:34.389Z,16.13
2018-05-12T06:26:34.309Z,16.22
2018-05-12T06:27:34.397Z,16.29
2018-05-12T06:28:34.260Z,16.30
2018-05-12T06:29:34.322Z,16.37
2018-05-12T06:30:34.226Z,16.34
2018-05-12T06:31:34.268Z,16.41
2018-05-12T06:32:34.173Z,16.50
2018-05-12T06:33:34.332Z,16.55
2018-05-12T06:34:34.131Z,16.52
2018-05-12T06:35:34.150Z,16.59
2018-05-12T06:36:34.058Z,16.65
2018-05-12T06:37:34.072Z,16.66
2018-05-12T06:38:34.022Z,16.66
2018-05-12T06:39:34.087Z,16.69
2018-05-12T06:40:34.002Z,16.75
2018-05-12T06:41:33.996Z,16.78
2018-05-12T06:42:33.934Z,16.96
2018-05-12T06:43:34.927Z,16.99
2018-05-12T06:44:33.912Z,16.95
2018-05-12T06:45:36.208Z,17.00
2018-05-12T06:46:33.824Z,16.95
2018-05-12T06:47:34.884Z,16.92
2018-05-12T06:48:33.787Z,16.95
2018-05-12T06:49:33.888Z,16.99
2018-05-12T06:50:33.875Z,17.09
2018-05-12T06:51:33.711Z,17.05
2018-05-12T06:52:33.690Z,17.00
2018-05-12T06:53:33.764Z,17.10
2018-05-12T06:54:33.637Z,17.12
2018-05-12T06:55:33.827Z,17.18
2018-05-12T06:56:33.652Z,17.14
2018-05-12T06:57:33.774Z,17.10
2018-05-12T06:58:33.650Z,17.12
2018-05-12T06:59:33.509Z,17.09
2018-05-12T07:00:33.520Z,17.17
2018-05-12T07:01:33.460Z,17.15
2018-05-12T07:02:33.439Z,17.17
2018-05-12T07:03:33.427Z,17.17
2018-05-12T07:04:33.390Z,17.20
2018-05-12T07:05:33.368Z,17.18
2018-05-12T07:06:33.360Z,17.20
2018-05-12T07:07:33.350Z,17.30
2018-05-12T07:08:33.314Z,17.27
2018-05-12T07:09:33.386Z,17.32
2018-05-12T07:10:33.261Z,17.45
2018-05-12T07:11:33.267Z,17.40
2018-05-12T07:12:33.197Z,17.38
2018-05-12T07:13:33.166Z,17.49
2018-05-12T07:14:33.155Z,17.51
2018-05-12T07:15:33.145Z,17.57
2018-05-12T07:16:33.106Z,17.54
2018-05-12T07:17:33.070Z,17.54
2018-05-12T07:18:33.062Z,17.60
2018-05-12T07:19:33.188Z,17.70
2018-05-12T07:20:32.999Z,17.62
2018-05-12T07:21:32.978Z,17.76
2018-05-12T07:22:32.968Z,17.66
2018-05-12T07:23:32.924Z,17.77
2018-05-12T07:24:32.903Z,17.84
2018-05-12T07:25:33.888Z,17.95
2018-05-12T07:26:32.875Z,17.96
2018-05-12T07:27:32.835Z,17.94
2018-05-12T07:28:32.796Z,17.98
2018-05-12T07:29:32.828Z,18.01
2018-05-12T07:30:32.862Z,18.04
2018-05-12T07:31:32.741Z,17.96
2018-05-12T07:32:32.816Z,17.98
2018-05-12T07:33:32.672Z,17.98
2018-05-12T07:34:32.720Z,18.01
2018-05-12T07:35:32.636Z,18.05
2018-05-12T07:36:32.627Z,18.05
2018-05-12T07:37:32.589Z,18.16
2018-05-12T07:38:32.657Z,18.25
2018-05-12T07:39:32.577Z,18.23
2018-05-12T07:40:32.559Z,18.35
2018-05-12T07:41:32.481Z,18.26
2018-05-12T07:42:32.577Z,18.36
2018-05-12T07:43:32.458Z,18.31
2018-05-12T07:44:32.488Z,18.35
2018-05-12T07:45:32.406Z,18.31
2018-05-12T07:46:32.400Z,18.34
2018-05-12T07:47:32.355Z,18.38
2018-05-12T07:48:36.907Z,18.31
2018-05-12T07:49:32.278Z,18.47
2018-05-12T07:50:32.300Z,18.51
2018-05-12T07:51:45.057Z,18.57
2018-05-12T07:52:32.202Z,18.54
2018-05-12T07:53:32.331Z,18.68
2018-05-12T07:54:32.174Z,18.57
2018-05-12T07:55:32.213Z,18.69
2018-05-12T07:56:32.120Z,18.72
2018-05-12T07:57:32.125Z,18.71
2018-05-12T07:58:32.082Z,18.74
2018-05-12T07:59:32.159Z,18.79
2018-05-12T08:00:32.030Z,18.86
2018-05-12T08:01:32.053Z,18.83
2018-05-12T08:02:32.000Z,18.78
2018-05-12T08:03:32.042Z,18.86
2018-05-12T08:04:31.998Z,18.79
2018-05-12T08:05:31.905Z,18.93
2018-05-12T08:06:31.980Z,18.87
2018-05-12T08:07:31.856Z,18.87
2018-05-12T08:08:31.906Z,18.90
2018-05-12T08:09:31.806Z,18.89
2018-05-12T08:10:31.802Z,19.06
2018-05-12T08:11:31.765Z,19.05
2018-05-12T08:12:31.744Z,19.15
2018-05-12T08:13:31.731Z,19.16
2018-05-12T08:14:31.687Z,19.15
2018-05-12T08:15:31.690Z,19.23
2018-05-12T08:16:31.646Z,19.34
2018-05-12T08:17:31.601Z,19.32
2018-05-12T08:18:31.595Z,19.32
2018-05-12T08:19:31.577Z,19.45
2018-05-12T08:20:31.540Z,19.45
2018-05-12T08:21:31.573Z,19.50
2018-05-12T08:22:31.498Z,19.57
2018-05-12T08:23:31.497Z,19.61
2018-05-12T08:24:31.455Z,19.75
2018-05-12T08:25:31.425Z,19.79
2018-05-12T08:26:31.393Z,19.83
2018-05-12T08:27:31.378Z,19.86
2018-05-12T08:28:31.342Z,19.82
2018-05-12T08:29:31.344Z,20.05
2018-05-12T08:30:31.304Z,20.04
2018-05-12T08:31:31.362Z,20.07
2018-05-12T08:32:31.270Z,20.10
2018-05-12T08:33:31.232Z,20.05
2018-05-12T08:34:31.206Z,20.15
2018-05-12T08:35:31.186Z,20.04
2018-05-12T08:36:31.168Z,20.17
2018-05-12T08:37:31.148Z,20.12
2018-05-12T08:38:31.115Z,20.20
2018-05-12T08:39:31.116Z,20.27
2018-05-12T08:40:31.095Z,20.22
2018-05-12T08:41:31.046Z,20.38
2018-05-12T08:42:31.013Z,20.35
2018-05-12T08:43:31.017Z,20.37
2018-05-12T08:44:30.961Z,20.38
2018-05-12T08:45:30.959Z,20.44
2018-05-12T08:46:30.908Z,20.38
2018-05-12T08:47:32.919Z,20.46
2018-05-12T08:48:30.885Z,20.50
2018-05-12T08:49:32.352Z,20.48
2018-05-12T08:50:30.820Z,20.44
2018-05-12T08:51:30.804Z,20.33
2018-05-12T08:52:30.798Z,20.37
2018-05-12T08:53:30.749Z,20.48
2018-05-12T08:54:31.733Z,20.56
2018-05-12T08:55:30.715Z,20.66
2018-05-12T08:56:30.692Z,20.69
2018-05-12T08:57:30.671Z,20.73
2018-05-12T08:58:30.661Z,20.79
2018-05-12T08:59:30.627Z,20.85
2018-05-12T09:00:30.592Z,20.88
2018-05-12T09:01:30.599Z,20.98
2018-05-12T09:02:30.545Z,21.03
2018-05-12T09:03:30.565Z,21.01
2018-05-12T09:04:30.554Z,21.06
2018-05-12T09:05:30.480Z,21.06
2018-05-12T09:06:30.475Z,21.13
2018-05-12T09:07:30.425Z,21.12
2018-05-12T09:08:30.413Z,21.13
2018-05-12T09:09:30.391Z,21.22
2018-05-12T09:10:30.382Z,21.18
2018-05-12T09:11:30.336Z,21.30
2018-05-12T09:12:30.304Z,21.30
2018-05-12T09:13:30.278Z,21.27
2018-05-12T09:14:31.260Z,21.30
2018-05-12T09:15:30.241Z,21.31
2018-05-12T09:16:30.237Z,21.42
2018-05-12T09:17:30.192Z,21.34
2018-05-12T09:18:30.247Z,21.43
2018-05-12T09:19:30.178Z,21.61
2018-05-12T09:20:31.124Z,21.71
2018-05-12T09:21:30.147Z,21.89
2018-05-12T09:22:30.085Z,22.14
2018-05-12T09:23:30.076Z,22.09
2018-05-12T09:24:30.047Z,22.06
2018-05-12T09:25:30.030Z,22.24
2018-05-12T09:26:30.003Z,22.12
2018-05-12T09:27:29.961Z,22.09
2018-05-12T09:28:29.952Z,22.11
2018-05-12T09:29:29.901Z,21.99
2018-05-12T09:30:29.914Z,21.91
2018-05-12T09:31:29.856Z,21.77
2018-05-12T09:32:29.852Z,21.83
2018-05-12T09:33:29.822Z,21.89
2018-05-12T09:34:29.809Z,21.81
2018-05-12T09:35:29.768Z,22.12
2018-05-12T09:36:29.758Z,22.05
2018-05-12T09:37:29.733Z,22.01
2018-05-12T09:38:29.705Z,21.79
2018-05-12T09:39:29.711Z,21.93
2018-05-12T09:40:29.665Z,21.99
2018-05-12T09:41:29.646Z,22.02
2018-05-12T09:42:29.681Z,22.09
2018-05-12T09:43:29.583Z,22.14
2018-05-12T09:44:29.583Z,22.35
2018-05-12T09:45:29.629Z,22.51
2018-05-12T09:46:29.526Z,22.76
2018-05-12T09:47:29.499Z,22.88
2018-05-12T09:48:29.500Z,23.09
2018-05-12T09:49:29.453Z,23.19
2018-05-12T09:50:29.422Z,23.41
2018-05-12T09:51:29.414Z,23.52
2018-05-12T09:52:29.400Z,23.59
2018-05-12T09:53:29.358Z,23.64
2018-05-12T09:54:29.362Z,23.72
2018-05-12T09:55:29.299Z,23.62
2018-05-12T09:56:29.298Z,23.63
2018-05-12T09:57:29.290Z,23.68
2018-05-12T09:58:29.236Z,23.64
2018-05-12T09:59:29.230Z,23.77
2018-05-12T10:00:29.193Z,23.82
2018-05-12T10:01:29.175Z,23.79
2018-05-12T10:02:29.138Z,23.75
2018-05-12T10:03:29.184Z,23.82
2018-05-12T10:04:29.100Z,23.99
2018-05-12T10:05:29.088Z,23.96
2018-05-12T10:06:29.064Z,24.26
2018-05-12T10:07:29.065Z,24.11
2018-05-12T10:08:29.012Z,24.24
2018-05-12T10:09:28.994Z,24.08
2018-05-12T10:10:28.971Z,24.12
2018-05-12T10:11:30.248Z,24.09
2018-05-12T10:12:28.930Z,24.09
2018-05-12T10:13:28.911Z,24.06
2018-05-12T10:14:28.876Z,24.08
2018-05-12T10:15:28.886Z,23.89
2018-05-12T10:16:28.832Z,23.86
2018-05-12T10:17:28.816Z,23.74
2018-05-12T10:18:28.786Z,23.68
2018-05-12T10:19:28.785Z,23.62
2018-05-12T10:20:28.755Z,23.53
2018-05-12T10:21:28.720Z,23.44
2018-05-12T10:22:28.699Z,23.49
2018-05-12T10:23:28.676Z,23.44
2018-05-12T10:24:28.642Z,23.47
2018-05-12T10:25:28.634Z,23.50
2018-05-12T10:26:28.614Z,23.47
2018-05-12T10:27:28.582Z,23.71
2018-05-12T10:28:28.614Z,23.87
2018-05-12T10:29:28.550Z,23.97
2018-05-12T10:30:28.536Z,24.05
2018-05-12T10:31:28.495Z,24.09
2018-05-12T10:32:28.477Z,24.16
2018-05-12T10:33:28.446Z,24.26
2018-05-12T10:34:28.419Z,24.16
2018-05-12T10:35:28.404Z,24.14
2018-05-12T10:36:28.382Z,24.19
2018-05-12T10:37:29.364Z,24.19
2018-05-12T10:38:28.346Z,24.14
2018-05-12T10:39:28.326Z,24.24
2018-05-12T10:40:28.292Z,24.42
2018-05-12T10:41:28.284Z,24.61
2018-05-12T10:42:28.251Z,24.74
2018-05-12T10:43:28.229Z,24.86
2018-05-12T10:44:28.201Z,24.92
2018-05-12T10:45:28.230Z,24.94
2018-05-12T10:46:28.168Z,24.97
2018-05-12T10:47:28.121Z,25.11
2018-05-12T10:48:28.103Z,25.11
2018-05-12T10:49:28.072Z,25.17
2018-05-12T10:50:28.071Z,25.36
2018-05-12T10:51:28.020Z,25.38
2018-05-12T10:52:28.051Z,25.34
2018-05-12T10:53:27.994Z,25.53
2018-05-12T10:54:27.981Z,25.53
2018-05-12T10:55:27.956Z,25.45
2018-05-12T10:56:27.923Z,25.36
2018-05-12T10:57:27.926Z,24.93
2018-05-12T10:58:27.897Z,24.84
2018-05-12T10:59:27.857Z,24.53
2018-05-12T11:00:27.840Z,24.29
2018-05-12T11:01:27.817Z,24.44
2018-05-12T11:02:27.798Z,24.31
2018-05-12T11:03:27.770Z,24.59
2018-05-12T11:04:27.750Z,24.79
2018-05-12T11:05:27.723Z,25.08
2018-05-12T11:06:27.716Z,25.16
2018-05-12T11:07:27.680Z,25.20
2018-05-12T11:08:27.723Z,25.36
2018-05-12T11:09:27.647Z,25.29
2018-05-12T11:10:27.627Z,25.29
2018-05-12T11:11:27.585Z,25.31
2018-05-12T11:12:28.551Z,25.30
2018-05-12T11:13:27.530Z,25.24
2018-05-12T11:14:27.528Z,25.08
2018-05-12T11:15:27.499Z,25.24
2018-05-12T11:16:27.506Z,25.26
2018-05-12T11:17:27.456Z,25.35
2018-05-12T11:18:27.462Z,25.36
2018-05-12T11:19:27.396Z,25.27
2018-05-12T11:20:27.392Z,25.19
2018-05-12T11:21:27.365Z,25.08
2018-05-12T11:22:27.363Z,25.04
2018-05-12T11:23:27.342Z,25.02
2018-05-12T11:24:27.297Z,24.90
2018-05-12T11:25:27.282Z,25.07
2018-05-12T11:26:27.261Z,24.93
2018-05-12T11:27:27.242Z,24.99
2018-05-12T11:28:27.220Z,24.93
2018-05-12T11:29:27.212Z,24.90
2018-05-12T11:30:27.166Z,24.80
2018-05-12T11:31:27.163Z,24.79
2018-05-12T11:32:27.174Z,24.83
2018-05-12T11:33:27.114Z,25.07
2018-05-12T11:34:27.088Z,25.16
2018-05-12T11:35:27.076Z,25.23
2018-05-12T11:36:27.086Z,25.01
2018-05-12T11:37:27.004Z,25.02
2018-05-12T11:38:27.003Z,25.07
2018-05-12T11:39:26.993Z,25.16
2018-05-12T11:40:26.949Z,25.20
2018-05-12T11:41:26.947Z,25.29
2018-05-12T11:42:26.898Z,25.36
2018-05-12T11:43:26.905Z,25.49
2018-05-12T11:44:26.863Z,25.57
2018-05-12T11:45:26.826Z,25.54
2018-05-12T11:46:26.823Z,25.56
2018-05-12T11:47:26.803Z,25.53
2018-05-12T11:48:26.773Z,25.66
2018-05-12T11:49:26.750Z,25.64
2018-05-12T11:50:26.726Z,25.57
2018-05-12T11:51:26.757Z,25.60
2018-05-12T11:52:26.696Z,25.46
2018-05-12T11:53:26.660Z,25.35
2018-05-12T11:54:26.640Z,25.31
2018-05-12T11:55:26.626Z,25.26
2018-05-12T11:56:26.618Z,25.27
2018-05-12T11:57:26.565Z,25.31
2018-05-12T11:58:26.619Z,25.44
2018-05-12T11:59:26.551Z,25.48
2018-05-12T12:00:26.513Z,25.60
2018-05-12T12:01:26.495Z,25.53
2018-05-12T12:02:26.507Z,25.72
2018-05-12T12:03:26.454Z,25.71
2018-05-12T12:04:26.425Z,25.66
2018-05-12T12:05:26.407Z,25.75
2018-05-12T12:06:26.394Z,25.67
2018-05-12T12:07:26.376Z,25.72
2018-05-12T12:08:26.336Z,25.60
2018-05-12T12:09:26.300Z,25.56
2018-05-12T12:10:26.285Z,25.56
2018-05-12T12:11:26.273Z,25.54
2018-05-12T12:12:26.244Z,25.22
2018-05-12T12:13:26.233Z,24.92
2018-05-12T12:14:26.191Z,24.79
2018-05-12T12:15:26.193Z,24.80
2018-05-12T12:16:26.160Z,24.64
2018-05-12T12:17:26.142Z,24.48
2018-05-12T12:18:26.117Z,24.68
2018-05-12T12:19:26.129Z,24.84
2018-05-12T12:20:26.096Z,24.84
2018-05-12T12:21:26.049Z,24.87
2018-05-12T12:22:26.057Z,24.99
2018-05-12T12:23:26.011Z,25.05
2018-05-12T12:24:26.021Z,25.11
2018-05-12T12:25:25.971Z,25.35
2018-05-12T12:26:25.943Z,25.36
2018-05-12T12:27:25.954Z,25.35
2018-05-12T12:28:25.888Z,25.39
2018-05-12T12:29:25.879Z,25.39
2018-05-12T12:30:25.858Z,25.41
2018-05-12T12:31:25.832Z,25.49
2018-05-12T12:32:25.813Z,25.57
2018-05-12T12:33:25.817Z,25.51
2018-05-12T12:34:25.760Z,25.63
2018-05-12T12:35:25.753Z,25.54
2018-05-12T12:36:25.729Z,25.56
2018-05-12T12:37:25.703Z,25.48
2018-05-12T12:38:25.673Z,25.41
2018-05-12T12:39:25.655Z,25.34
2018-05-12T12:40:25.617Z,25.23
2018-05-12T12:41:25.614Z,25.36
2018-05-12T12:42:25.605Z,25.45
2018-05-12T12:43:25.565Z,25.41
2018-05-12T12:44:25.559Z,25.36
2018-05-12T12:45:25.548Z,25.35
2018-05-12T12:46:25.505Z,25.29
2018-05-12T12:47:25.481Z,25.17
2018-05-12T12:48:25.464Z,25.14
2018-05-12T12:49:25.442Z,24.99
2018-05-12T12:50:25.417Z,24.70
2018-05-12T12:51:25.399Z,24.70
2018-05-12T12:52:25.370Z,24.86